Time;durP1;ratioP1;P1;durP2;ratioP2;P2;SDS_P1;SDS_P2;PMS_P1;PMS_P2;Temp;Humidity;BMP_temperature;BMP_pressure;BME280_temperature;BME280_humidity;BME280_pressure;Samples;Min_cycle;Max_cycle;Signal;HPM_P1;HPM_P2
2021/06/27 00:01:44;;;;;;;5.80;5.30;;;;;;;;;;491920;241;27492;-73
2021/06/27 00:03:46;;;;;;;5.63;5.13;;;;;;;;;;491902;241;27460;-73
2021/06/27 00:05:48;;;;;;;6.80;6.20;;;;;;;;;;491888;241;27828;-73
2021/06/27 00:07:51;;;;;;;5.80;5.30;;;;;;;;;;491885;242;27369;-73
2021/06/27 00:09:53;;;;;;;6.20;5.70;;;;;;;;;;491912;240;27487;-73
2021/06/27 00:11:55;;;;;;;8.33;5.50;;;;;;;;;;491855;241;27749;-73
2021/06/27 00:13:57;;;;;;;5.97;5.47;;;;;;;;;;491892;241;27471;-73
2021/06/27 00:15:59;;;;;;;6.70;6.10;;;;;;;;;;491891;241;27483;-73
2021/06/27 00:18:01;;;;;;;5.80;5.30;;;;;;;;;;491893;241;27465;-73
2021/06/27 00:20:03;;;;;;;5.60;5.10;;;;;;;;;;491941;241;27416;-74
2021/06/27 00:22:05;;;;;;;6.00;5.40;;;;;;;;;;491889;242;27500;-73
2021/06/27 00:24:07;;;;;;;6.10;5.60;;;;;;;;;;491842;241;27378;-73
2021/06/27 00:26:09;;;;;;;6.20;5.70;;;;;;;;;;491782;241;27401;-72
2021/06/27 00:28:12;;;;;;;6.17;5.57;;;;;;;;;;491713;242;27476;-73
2021/06/27 00:30:14;;;;;;;5.67;5.23;;;;;;;;;;491608;241;27521;-74
2021/06/27 00:32:16;;;;;;;8.10;5.60;;;;;;;;;;491850;241;27402;-73
2021/06/27 00:34:18;;;;;;;6.10;5.50;;;;;;;;;;491909;241;27418;-73
2021/06/27 00:36:20;;;;;;;6.20;5.60;;;;;;;;;;491942;241;27493;-73
2021/06/27 00:38:24;;;;;;;6.03;5.50;;;;;;;;;;491927;241;27473;-73
2021/06/27 00:40:24;;;;;;;5.40;4.90;;;;;;;;;;491918;240;27512;-73
2021/06/27 00:42:26;;;;;;;7.13;5.07;;;;;;;;;;491888;241;27425;-73
2021/06/27 00:44:28;;;;;;;5.67;5.17;;;;;;;;;;491903;241;27413;-73
2021/06/27 00:46:31;;;;;;;5.27;4.87;;;;;;;;;;491820;241;27405;-73
2021/06/27 00:48:33;;;;;;;4.80;4.40;;;;;;;;;;491909;242;27417;-73
2021/06/27 00:50:35;;;;;;;5.17;4.77;;;;;;;;;;491902;241;27421;-73
2021/06/27 00:52:37;;;;;;;4.67;4.27;;;;;;;;;;491922;241;27409;-73
2021/06/27 00:54:39;;;;;;;4.67;4.33;;;;;;;;;;491920;241;27412;-73
2021/06/27 00:56:44;;;;;;;8.40;4.50;;;;;;;;;;491918;241;27421;-73
2021/06/27 00:58:43;;;;;;;5.07;4.47;;;;;;;;;;491949;240;27480;-73
2021/06/27 01:00:45;;;;;;;4.53;4.23;;;;;;;;;;491875;241;27505;-73
2021/06/27 01:02:48;;;;;;;4.83;4.40;;;;;;;;;;491934;241;27445;-74
2021/06/27 01:04:50;;;;;;;5.07;4.57;;;;;;;;;;491915;241;27468;-73
2021/06/27 01:06:52;;;;;;;5.17;4.77;;;;;;;;;;491902;241;27444;-73
2021/06/27 01:08:55;;;;;;;4.60;4.20;;;;;;;;;;491907;241;27412;-73
2021/06/27 01:10:56;;;;;;;5.07;4.67;;;;;;;;;;491916;240;27383;-73
2021/06/27 01:12:58;;;;;;;5.13;4.73;;;;;;;;;;491920;241;27420;-73
2021/06/27 01:15:00;;;;;;;4.80;4.40;;;;;;;;;;491911;242;27488;-73
2021/06/27 01:17:02;;;;;;;4.90;4.50;;;;;;;;;;491905;241;27381;-73
2021/06/27 01:19:04;;;;;;;6.03;5.53;;;;;;;;;;491926;241;27425;-73
2021/06/27 01:21:07;;;;;;;6.00;5.47;;;;;;;;;;491939;241;27401;-73
2021/06/27 01:23:09;;;;;;;5.70;5.20;;;;;;;;;;491900;241;27444;-73
2021/06/27 01:25:11;;;;;;;5.20;4.80;;;;;;;;;;491918;241;27380;-73
2021/06/27 01:27:13;;;;;;;5.87;5.27;;;;;;;;;;491904;242;27479;-73
2021/06/27 01:29:15;;;;;;;6.37;5.77;;;;;;;;;;491933;241;27377;-73
2021/06/27 01:31:17;;;;;;;7.10;5.60;;;;;;;;;;491893;241;27433;-73
2021/06/27 01:33:19;;;;;;;6.80;6.23;;;;;;;;;;491880;241;27377;-73
2021/06/27 01:35:21;;;;;;;6.33;5.73;;;;;;;;;;491899;241;27600;-73
2021/06/27 01:37:23;;;;;;;6.07;5.50;;;;;;;;;;491929;241;27464;-73
2021/06/27 01:39:26;;;;;;;6.70;5.13;;;;;;;;;;491904;241;27438;-73
2021/06/27 01:41:28;;;;;;;5.77;5.27;;;;;;;;;;491890;241;27418;-72
2021/06/27 01:43:30;;;;;;;5.27;4.87;;;;;;;;;;491909;241;27412;-73
2021/06/27 01:45:32;;;;;;;6.00;5.50;;;;;;;;;;491904;241;27519;-73
2021/06/27 01:47:34;;;;;;;6.17;5.57;;;;;;;;;;491921;241;27440;-73
2021/06/27 01:49:36;;;;;;;5.30;4.90;;;;;;;;;;491903;241;27432;-72
2021/06/27 01:51:38;;;;;;;5.93;5.40;;;;;;;;;;491914;242;27495;-73
2021/06/27 01:53:40;;;;;;;6.60;5.50;;;;;;;;;;491924;241;27411;-73
2021/06/27 01:55:42;;;;;;;5.50;4.90;;;;;;;;;;491949;241;27412;-73
2021/06/27 01:57:45;;;;;;;5.67;5.17;;;;;;;;;;491936;241;27424;-73
2021/06/27 01:59:48;;;;;;;6.33;5.50;;;;;;;;;;491926;241;27424;-73
2021/06/27 02:01:49;;;;;;;5.17;4.77;;;;;;;;;;491926;240;27424;-73
2021/06/27 02:03:51;;;;;;;6.30;5.70;;;;;;;;;;491921;241;27413;-72
2021/06/27 02:05:53;;;;;;;5.30;4.80;;;;;;;;;;491920;241;27483;-73
2021/06/27 02:07:57;;;;;;;5.87;5.27;;;;;;;;;;491901;241;27874;-73
2021/06/27 02:09:57;;;;;;;5.90;5.40;;;;;;;;;;491882;240;27471;-73
2021/06/27 02:11:59;;;;;;;5.57;5.10;;;;;;;;;;491920;242;27916;-73
2021/06/27 02:14:01;;;;;;;5.87;5.33;;;;;;;;;;491910;241;27416;-74
2021/06/27 02:16:04;;;;;;;5.23;4.83;;;;;;;;;;491889;241;27955;-73
2021/06/27 02:18:06;;;;;;;5.10;4.60;;;;;;;;;;491910;241;27512;-73
2021/06/27 02:20:08;;;;;;;4.90;4.50;;;;;;;;;;491910;241;27839;-73
2021/06/27 02:22:10;;;;;;;5.87;5.33;;;;;;;;;;491913;241;27408;-73
2021/06/27 02:24:12;;;;;;;5.10;4.70;;;;;;;;;;491850;241;28089;-73
2021/06/27 02:26:14;;;;;;;6.23;4.90;;;;;;;;;;491906;241;27444;-73
2021/06/27 02:28:16;;;;;;;5.37;4.90;;;;;;;;;;491882;241;27944;-73
2021/06/27 02:30:18;;;;;;;5.10;4.70;;;;;;;;;;491888;241;27381;-73
2021/06/27 02:32:22;;;;;;;6.07;5.57;;;;;;;;;;491896;241;27840;-74
2021/06/27 02:34:23;;;;;;;5.83;5.30;;;;;;;;;;491929;240;27387;-73
2021/06/27 02:36:25;;;;;;;5.00;4.60;;;;;;;;;;491930;241;28002;-73
2021/06/27 02:38:27;;;;;;;5.40;4.90;;;;;;;;;;491958;241;27390;-74
2021/06/27 02:40:29;;;;;;;5.97;5.47;;;;;;;;;;491917;241;27801;-73
2021/06/27 02:42:31;;;;;;;6.50;5.90;;;;;;;;;;491905;241;27410;-73
2021/06/27 02:44:33;;;;;;;5.90;5.30;;;;;;;;;;491905;241;27394;-73
2021/06/27 02:46:37;;;;;;;5.77;5.27;;;;;;;;;;491908;241;27480;-73
2021/06/27 02:48:37;;;;;;;5.63;5.23;;;;;;;;;;491939;240;27417;-73
2021/06/27 02:50:40;;;;;;;6.07;5.47;;;;;;;;;;491895;241;27449;-73
2021/06/27 02:52:42;;;;;;;6.27;5.67;;;;;;;;;;491926;242;27427;-73
2021/06/27 02:54:44;;;;;;;8.10;6.93;;;;;;;;;;491923;241;27421;-73
2021/06/27 02:56:46;;;;;;;6.70;6.10;;;;;;;;;;491915;241;27413;-73
2021/06/27 02:58:48;;;;;;;7.07;6.37;;;;;;;;;;491881;241;27424;-73
2021/06/27 03:00:50;;;;;;;7.13;6.43;;;;;;;;;;491893;241;27422;-73
2021/06/27 03:02:52;;;;;;;9.03;6.80;;;;;;;;;;491888;241;27488;-73
2021/06/27 03:04:54;;;;;;;6.87;6.17;;;;;;;;;;491901;242;27417;-73
2021/06/27 03:06:56;;;;;;;7.33;6.63;;;;;;;;;;491908;241;27469;-73
2021/06/27 03:08:59;;;;;;;7.40;6.43;;;;;;;;;;491882;241;27417;-73
2021/06/27 03:11:01;;;;;;;7.17;6.40;;;;;;;;;;491910;241;27539;-73
2021/06/27 03:13:03;;;;;;;6.87;6.17;;;;;;;;;;491868;242;27393;-73
2021/06/27 03:15:05;;;;;;;7.60;6.80;;;;;;;;;;491925;241;27511;-73
2021/06/27 03:17:07;;;;;;;6.80;6.20;;;;;;;;;;491913;242;27397;-73
2021/06/27 03:19:13;;;;;;;6.77;6.17;;;;;;;;;;491899;241;27373;-73
2021/06/27 03:21:11;;;;;;;5.80;5.30;;;;;;;;;;491986;240;27476;-73
2021/06/27 03:23:13;;;;;;;6.23;5.70;;;;;;;;;;491910;241;27405;-73
2021/06/27 03:25:16;;;;;;;6.83;6.23;;;;;;;;;;491937;241;27833;-74
2021/06/27 03:27:20;;;;;;;6.70;6.10;;;;;;;;;;491898;241;27370;-72
2021/06/27 03:29:20;;;;;;;6.33;5.73;;;;;;;;;;491919;240;27842;-73
2021/06/27 03:31:22;;;;;;;6.70;6.10;;;;;;;;;;491923;241;27453;-73
2021/06/27 03:33:24;;;;;;;8.00;6.43;;;;;;;;;;491938;241;27393;-73
2021/06/27 03:35:26;;;;;;;8.57;6.80;;;;;;;;;;491947;241;27484;-74
2021/06/27 03:37:28;;;;;;;7.70;6.90;;;;;;;;;;491922;241;27951;-73
2021/06/27 03:39:30;;;;;;;7.10;6.47;;;;;;;;;;491926;241;27402;-73
2021/06/27 03:41:40;;;;;;;7.77;6.80;;;;;;;;;;491894;241;27393;-73
2021/06/27 03:43:34;;;;;;;7.17;6.47;;;;;;;;;;491897;240;27429;-73
2021/06/27 03:45:38;;;;;;;7.40;6.70;;;;;;;;;;491889;242;27429;-73
2021/06/27 03:47:39;;;;;;;7.77;6.97;;;;;;;;;;491941;240;27517;-73
2021/06/27 03:49:41;;;;;;;6.67;6.07;;;;;;;;;;491917;241;27424;-73
2021/06/27 03:51:43;;;;;;;6.60;6.00;;;;;;;;;;491905;242;27417;-74
2021/06/27 03:53:45;;;;;;;6.87;6.13;;;;;;;;;;491903;241;27421;-74
2021/06/27 03:55:47;;;;;;;6.93;6.23;;;;;;;;;;491878;241;27509;-73
2021/06/27 03:57:49;;;;;;;6.60;5.90;;;;;;;;;;491903;241;27413;-73
2021/06/27 03:59:51;;;;;;;8.30;6.70;;;;;;;;;;491935;241;27608;-73
2021/06/27 04:01:54;;;;;;;7.47;6.37;;;;;;;;;;491934;241;27496;-73
2021/06/27 04:03:56;;;;;;;7.53;6.67;;;;;;;;;;491944;241;27466;-73
2021/06/27 04:05:58;;;;;;;7.13;6.47;;;;;;;;;;491911;241;27426;-73
2021/06/27 04:08:00;;;;;;;6.40;5.80;;;;;;;;;;491904;241;27409;-73
2021/06/27 04:10:02;;;;;;;6.77;6.07;;;;;;;;;;491919;242;27401;-73
2021/06/27 04:12:04;;;;;;;6.80;6.20;;;;;;;;;;491891;241;27421;-73
2021/06/27 04:14:06;;;;;;;6.53;5.90;;;;;;;;;;491917;241;27374;-73
2021/06/27 04:16:08;;;;;;;7.00;6.30;;;;;;;;;;491851;241;27484;-73
2021/06/27 04:18:10;;;;;;;7.13;6.43;;;;;;;;;;491918;241;27387;-73
2021/06/27 04:20:13;;;;;;;6.97;6.27;;;;;;;;;;491936;241;27373;-73
2021/06/27 04:22:15;;;;;;;6.60;6.00;;;;;;;;;;491906;241;27409;-73
2021/06/27 04:24:17;;;;;;;6.30;5.70;;;;;;;;;;491893;241;27385;-74
2021/06/27 04:26:19;;;;;;;7.07;6.37;;;;;;;;;;491885;241;27492;-73
2021/06/27 04:28:21;;;;;;;7.10;6.07;;;;;;;;;;491899;241;27496;-73
2021/06/27 04:30:23;;;;;;;6.47;5.87;;;;;;;;;;491918;241;27449;-73
2021/06/27 04:32:25;;;;;;;7.60;6.80;;;;;;;;;;491896;241;27503;-73
2021/06/27 04:34:27;;;;;;;7.37;6.60;;;;;;;;;;491746;241;27579;-73
2021/06/27 04:36:29;;;;;;;7.20;6.50;;;;;;;;;;491888;242;27420;-73
2021/06/27 04:38:32;;;;;;;7.77;7.00;;;;;;;;;;491899;241;27935;-73
2021/06/27 04:40:34;;;;;;;7.13;6.43;;;;;;;;;;491868;241;27413;-73
2021/06/27 04:42:36;;;;;;;8.10;7.00;;;;;;;;;;491878;241;27496;-73
2021/06/27 04:44:38;;;;;;;7.40;6.70;;;;;;;;;;491892;242;27418;-73
2021/06/27 04:46:40;;;;;;;9.60;6.83;;;;;;;;;;491901;241;27409;-73
2021/06/27 04:48:42;;;;;;;6.90;6.30;;;;;;;;;;491868;242;27420;-73
2021/06/27 04:50:44;;;;;;;6.70;6.10;;;;;;;;;;491894;241;27424;-73
2021/06/27 04:52:52;;;;;;;6.33;5.83;;;;;;;;;;491897;241;27419;-73
2021/06/27 04:54:51;;;;;;;6.87;6.17;;;;;;;;;;491901;240;27456;-73
2021/06/27 04:56:53;;;;;;;6.63;6.03;;;;;;;;;;491903;241;27369;-73
2021/06/27 04:58:56;;;;;;;7.20;6.50;;;;;;;;;;491863;242;27399;-73
2021/06/27 05:00:58;;;;;;;6.33;5.73;;;;;;;;;;491883;242;27460;-73
2021/06/27 05:03:01;;;;;;;6.40;5.90;;;;;;;;;;491894;241;27865;-73
2021/06/27 05:05:02;;;;;;;6.10;5.60;;;;;;;;;;491906;240;27456;-73
2021/06/27 05:07:04;;;;;;;6.53;5.93;;;;;;;;;;491914;242;27943;-73
2021/06/27 05:09:06;;;;;;;6.50;5.90;;;;;;;;;;491911;241;27484;-73
2021/06/27 05:11:08;;;;;;;6.30;5.70;;;;;;;;;;491874;241;27964;-74
2021/06/27 05:13:10;;;;;;;6.77;6.17;;;;;;;;;;491892;241;27374;-73
2021/06/27 05:15:13;;;;;;;7.57;6.80;;;;;;;;;;491875;241;27943;-73
2021/06/27 05:17:15;;;;;;;6.50;5.90;;;;;;;;;;491893;241;27420;-74
2021/06/27 05:19:17;;;;;;;6.37;5.87;;;;;;;;;;491870;241;28642;-73
2021/06/27 05:21:19;;;;;;;7.00;6.13;;;;;;;;;;491867;241;27390;-73
2021/06/27 05:23:21;;;;;;;6.23;5.70;;;;;;;;;;491913;241;28728;-74
2021/06/27 05:25:23;;;;;;;6.30;5.70;;;;;;;;;;491928;241;27395;-73
2021/06/27 05:27:25;;;;;;;5.40;4.97;;;;;;;;;;491927;241;27964;-74
2021/06/27 05:29:27;;;;;;;5.60;5.10;;;;;;;;;;491931;241;27485;-73
2021/06/27 05:31:33;;;;;;;6.00;5.40;;;;;;;;;;491918;241;27908;-73
2021/06/27 05:33:32;;;;;;;5.87;5.37;;;;;;;;;;491961;240;28676;-73
2021/06/27 05:35:34;;;;;;;6.10;5.60;;;;;;;;;;491770;241;27484;-73
2021/06/27 05:37:36;;;;;;;6.20;5.60;;;;;;;;;;491921;241;27979;-73
2021/06/27 05:39:38;;;;;;;6.07;5.57;;;;;;;;;;491885;241;27508;-73
2021/06/27 05:41:40;;;;;;;6.03;5.53;;;;;;;;;;491895;241;27972;-73
2021/06/27 05:43:42;;;;;;;5.80;5.30;;;;;;;;;;491920;241;27484;-74
2021/06/27 05:45:44;;;;;;;6.23;5.63;;;;;;;;;;491885;241;27984;-73
2021/06/27 05:47:46;;;;;;;6.00;5.40;;;;;;;;;;491911;241;27493;-73
2021/06/27 05:49:49;;;;;;;6.00;5.50;;;;;;;;;;491872;241;27987;-74
2021/06/27 05:51:51;;;;;;;5.80;5.10;;;;;;;;;;491920;241;27473;-73
2021/06/27 05:53:53;;;;;;;5.87;5.23;;;;;;;;;;491881;242;27996;-73
2021/06/27 05:56:10;;;;;;;5.90;5.40;;;;;;;;;;491919;241;27536;-73
2021/06/27 05:58:13;;;;;;;6.20;5.70;;;;;;;;;;491891;241;28003;-73
2021/06/27 06:00:14;;;;;;;6.80;6.10;;;;;;;;;;491910;242;27405;-74
2021/06/27 06:02:17;;;;;;;6.33;5.73;;;;;;;;;;491934;242;28025;-73
2021/06/27 06:04:19;;;;;;;5.30;4.80;;;;;;;;;;491908;241;27541;-73
2021/06/27 06:06:21;;;;;;;5.87;5.37;;;;;;;;;;491903;242;27999;-73
2021/06/27 06:08:23;;;;;;;4.50;4.20;;;;;;;;;;491884;241;27416;-73
2021/06/27 06:10:25;;;;;;;4.47;4.13;;;;;;;;;;491915;241;28014;-73
2021/06/27 06:12:27;;;;;;;5.33;4.77;;;;;;;;;;491920;241;27405;-74
2021/06/27 06:14:29;;;;;;;5.53;5.03;;;;;;;;;;491925;241;27884;-73
2021/06/27 06:16:31;;;;;;;5.83;5.20;;;;;;;;;;491875;241;27409;-73
2021/06/27 06:18:34;;;;;;;5.70;5.20;;;;;;;;;;491906;241;27895;-73
2021/06/27 06:20:36;;;;;;;6.47;5.93;;;;;;;;;;491925;241;27502;-73
2021/06/27 06:22:38;;;;;;;7.30;5.13;;;;;;;;;;491935;241;27977;-73
2021/06/27 06:24:40;;;;;;;6.10;5.60;;;;;;;;;;491913;241;27413;-74
2021/06/27 06:26:42;;;;;;;6.43;5.23;;;;;;;;;;491952;241;27928;-73
2021/06/27 06:28:44;;;;;;;5.60;5.10;;;;;;;;;;491902;241;27404;-73
2021/06/27 06:30:46;;;;;;;6.83;5.47;;;;;;;;;;491891;242;27904;-74
2021/06/27 06:32:48;;;;;;;6.10;5.50;;;;;;;;;;491917;241;27374;-74
2021/06/27 06:34:50;;;;;;;7.30;5.43;;;;;;;;;;491898;241;27860;-73
2021/06/27 06:36:53;;;;;;;6.53;5.80;;;;;;;;;;491917;241;27394;-73
2021/06/27 06:38:55;;;;;;;6.73;6.03;;;;;;;;;;491872;241;27814;-74
2021/06/27 06:40:57;;;;;;;6.00;5.50;;;;;;;;;;491859;241;27381;-73
2021/06/27 06:42:59;;;;;;;6.60;5.87;;;;;;;;;;491855;240;27987;-74
2021/06/27 06:45:01;;;;;;;5.17;4.77;;;;;;;;;;491756;242;27378;-74
2021/06/27 06:47:03;;;;;;;5.57;5.07;;;;;;;;;;491865;241;27995;-74
2021/06/27 06:49:05;;;;;;;6.30;5.70;;;;;;;;;;491865;241;27424;-74
2021/06/27 06:51:07;;;;;;;7.33;4.93;;;;;;;;;;491873;241;27831;-74
2021/06/27 06:53:09;;;;;;;5.80;5.30;;;;;;;;;;491846;241;27487;-74
2021/06/27 06:55:12;;;;;;;5.33;4.83;;;;;;;;;;491880;241;28007;-74
2021/06/27 06:57:14;;;;;;;5.27;4.87;;;;;;;;;;491877;241;27368;-74
2021/06/27 06:59:16;;;;;;;6.57;5.17;;;;;;;;;;491923;241;28141;-74
2021/06/27 07:01:18;;;;;;;5.73;5.30;;;;;;;;;;491885;241;27434;-73
2021/06/27 07:03:20;;;;;;;5.13;4.70;;;;;;;;;;491926;241;27840;-73
2021/06/27 07:05:22;;;;;;;6.17;5.10;;;;;;;;;;491893;241;27452;-74
2021/06/27 07:07:24;;;;;;;5.17;4.77;;;;;;;;;;491926;241;28715;-74
2021/06/27 07:09:26;;;;;;;6.00;5.40;;;;;;;;;;491903;241;27536;-74
2021/06/27 07:11:28;;;;;;;5.40;4.90;;;;;;;;;;491942;242;28716;-73
2021/06/27 07:13:31;;;;;;;4.93;4.53;;;;;;;;;;491896;242;27405;-73
2021/06/27 07:15:33;;;;;;;5.33;4.93;;;;;;;;;;491905;242;28080;-73
2021/06/27 07:17:35;;;;;;;5.10;4.70;;;;;;;;;;491778;241;27417;-73
2021/06/27 07:19:37;;;;;;;4.53;4.13;;;;;;;;;;491873;241;28069;-73
2021/06/27 07:21:40;;;;;;;4.73;4.43;;;;;;;;;;491904;242;27425;-73
2021/06/27 07:23:41;;;;;;;5.33;4.93;;;;;;;;;;491912;240;27901;-73
2021/06/27 07:25:43;;;;;;;4.40;4.00;;;;;;;;;;491920;241;27422;-73
2021/06/27 07:27:45;;;;;;;4.30;3.97;;;;;;;;;;491921;241;27919;-73
2021/06/27 07:29:49;;;;;;;4.40;4.00;;;;;;;;;;491918;242;27421;-73
2021/06/27 07:31:50;;;;;;;4.50;4.20;;;;;;;;;;491932;240;28633;-73
2021/06/27 07:33:52;;;;;;;4.10;3.80;;;;;;;;;;491932;241;27429;-73
2021/06/27 07:35:54;;;;;;;4.13;3.83;;;;;;;;;;491893;241;28096;-73
2021/06/27 07:37:56;;;;;;;4.90;4.50;;;;;;;;;;491914;241;27425;-73
2021/06/27 07:39:58;;;;;;;4.97;4.53;;;;;;;;;;491886;241;27912;-73
2021/06/27 07:42:00;;;;;;;4.97;4.57;;;;;;;;;;491881;241;27417;-73
2021/06/27 07:44:02;;;;;;;5.03;4.53;;;;;;;;;;491856;241;27888;-73
2021/06/27 07:46:04;;;;;;;4.50;4.20;;;;;;;;;;491895;241;27403;-73
2021/06/27 07:48:07;;;;;;;5.20;4.80;;;;;;;;;;491901;241;28072;-72
2021/06/27 07:50:09;;;;;;;4.60;4.20;;;;;;;;;;491881;241;27409;-73
2021/06/27 07:52:11;;;;;;;4.70;4.30;;;;;;;;;;491873;241;27905;-73
2021/06/27 07:54:13;;;;;;;4.20;3.90;;;;;;;;;;491900;241;27417;-73
2021/06/27 07:56:15;;;;;;;4.80;4.30;;;;;;;;;;491907;241;27973;-73
2021/06/27 07:58:17;;;;;;;4.13;3.73;;;;;;;;;;491883;241;27483;-73
2021/06/27 08:00:19;;;;;;;4.10;3.83;;;;;;;;;;491904;242;27921;-73
2021/06/27 08:02:21;;;;;;;4.20;3.90;;;;;;;;;;491911;240;27386;-74
2021/06/27 08:04:23;;;;;;;4.00;3.70;;;;;;;;;;491908;241;27952;-74
2021/06/27 08:06:26;;;;;;;4.00;3.70;;;;;;;;;;491873;241;27429;-73
2021/06/27 08:08:28;;;;;;;4.83;4.30;;;;;;;;;;491877;242;27946;-73
2021/06/27 08:10:30;;;;;;;8.10;4.37;;;;;;;;;;491908;241;27471;-74
2021/06/27 08:12:32;;;;;;;4.20;3.90;;;;;;;;;;491897;242;27843;-73
2021/06/27 08:14:34;;;;;;;4.10;3.80;;;;;;;;;;491836;241;27382;-73
2021/06/27 08:16:37;;;;;;;5.20;4.37;;;;;;;;;;491744;242;27887;-73
2021/06/27 08:18:38;;;;;;;4.67;4.07;;;;;;;;;;491716;240;27389;-73
2021/06/27 08:20:42;;;;;;;4.30;4.00;;;;;;;;;;491708;242;27884;-73
2021/06/27 08:22:42;;;;;;;3.97;3.67;;;;;;;;;;491928;240;27408;-74
2021/06/27 08:24:45;;;;;;;4.43;4.13;;;;;;;;;;491903;241;28619;-73
2021/06/27 08:26:49;;;;;;;4.80;4.40;;;;;;;;;;491775;240;27410;-73
2021/06/27 08:28:49;;;;;;;4.73;4.33;;;;;;;;;;491746;240;27978;-73
2021/06/27 08:30:51;;;;;;;5.63;4.07;;;;;;;;;;491901;241;27410;-73
2021/06/27 08:32:53;;;;;;;4.37;4.07;;;;;;;;;;491901;241;27908;-74
2021/06/27 08:34:55;;;;;;;4.27;3.97;;;;;;;;;;491879;241;27412;-73
2021/06/27 08:36:57;;;;;;;4.60;3.83;;;;;;;;;;491895;242;27899;-74
2021/06/27 08:38:59;;;;;;;4.40;4.00;;;;;;;;;;491900;241;27421;-73
2021/06/27 08:41:01;;;;;;;4.50;4.10;;;;;;;;;;491923;241;27878;-73
2021/06/27 08:43:04;;;;;;;4.20;3.90;;;;;;;;;;491897;241;27421;-73
2021/06/27 08:45:06;;;;;;;4.17;3.87;;;;;;;;;;491893;241;27871;-73
2021/06/27 08:47:08;;;;;;;4.20;3.90;;;;;;;;;;491877;241;27418;-73
2021/06/27 08:49:10;;;;;;;4.10;3.80;;;;;;;;;;491893;241;27936;-74
2021/06/27 08:51:12;;;;;;;3.73;3.43;;;;;;;;;;491870;241;27421;-73
2021/06/27 08:53:14;;;;;;;4.00;3.70;;;;;;;;;;491892;241;27633;-74
2021/06/27 08:55:16;;;;;;;4.10;3.73;;;;;;;;;;491893;241;27417;-73
2021/06/27 08:57:18;;;;;;;4.27;3.97;;;;;;;;;;491940;241;27425;-73
2021/06/27 08:59:21;;;;;;;4.80;4.40;;;;;;;;;;491896;241;27519;-74
2021/06/27 09:01:23;;;;;;;4.73;4.33;;;;;;;;;;491913;241;27401;-74
2021/06/27 09:03:25;;;;;;;4.30;3.90;;;;;;;;;;491909;240;27511;-73
2021/06/27 09:05:27;;;;;;;4.10;3.70;;;;;;;;;;491900;241;27463;-74
2021/06/27 09:07:29;;;;;;;3.80;3.50;;;;;;;;;;491919;241;27480;-73
2021/06/27 09:09:31;;;;;;;4.00;3.70;;;;;;;;;;491936;241;27388;-74
2021/06/27 09:11:33;;;;;;;5.40;3.77;;;;;;;;;;491918;241;27377;-74
2021/06/27 09:13:35;;;;;;;3.57;3.30;;;;;;;;;;491889;241;27444;-73
2021/06/27 09:15:37;;;;;;;4.10;3.70;;;;;;;;;;491932;241;27476;-73
2021/06/27 09:17:40;;;;;;;3.93;3.63;;;;;;;;;;491932;241;27377;-74
2021/06/27 09:19:42;;;;;;;4.00;3.70;;;;;;;;;;491884;242;27379;-73
2021/06/27 09:21:44;;;;;;;5.17;3.73;;;;;;;;;;491932;241;27437;-73
2021/06/27 09:23:47;;;;;;;3.57;3.37;;;;;;;;;;491919;241;27549;-73
2021/06/27 09:25:48;;;;;;;3.93;3.50;;;;;;;;;;491931;240;27375;-74
2021/06/27 09:27:50;;;;;;;3.60;3.40;;;;;;;;;;491887;241;27670;-73
2021/06/27 09:29:54;;;;;;;3.37;3.17;;;;;;;;;;491905;241;27460;-73
2021/06/27 09:31:54;;;;;;;3.47;3.27;;;;;;;;;;491927;240;27373;-73
2021/06/27 09:33:56;;;;;;;3.97;3.67;;;;;;;;;;491906;241;27993;-74
2021/06/27 09:35:59;;;;;;;3.37;3.17;;;;;;;;;;491913;241;27489;-73
2021/06/27 09:38:01;;;;;;;3.10;2.90;;;;;;;;;;491919;241;27509;-74
2021/06/27 09:40:03;;;;;;;3.90;3.60;;;;;;;;;;491918;241;27498;-73
2021/06/27 09:42:05;;;;;;;4.37;3.97;;;;;;;;;;491898;242;27414;-73
2021/06/27 09:44:08;;;;;;;5.30;3.80;;;;;;;;;;491919;241;27537;-73
2021/06/27 09:46:12;;;;;;;4.23;3.80;;;;;;;;;;491919;240;27476;-74
2021/06/27 09:48:14;;;;;;;4.10;3.70;;;;;;;;;;491905;241;27734;-74
2021/06/27 09:50:16;;;;;;;4.27;3.97;;;;;;;;;;491775;241;27974;-74
2021/06/27 09:52:18;;;;;;;5.53;3.60;;;;;;;;;;491750;241;27765;-74
2021/06/27 09:54:21;;;;;;;3.93;3.63;;;;;;;;;;491912;241;28113;-73
2021/06/27 09:56:25;;;;;;;3.67;3.37;;;;;;;;;;491918;240;27864;-74
2021/06/27 09:58:25;;;;;;;4.13;3.83;;;;;;;;;;491794;240;28284;-74
2021/06/27 10:00:29;;;;;;;3.80;3.50;;;;;;;;;;491918;240;27868;-74
2021/06/27 10:02:29;;;;;;;3.80;3.50;;;;;;;;;;491972;240;28155;-74
2021/06/27 10:04:31;;;;;;;3.30;3.10;;;;;;;;;;491935;241;27931;-74
2021/06/27 10:06:33;;;;;;;4.10;3.80;;;;;;;;;;491903;241;29301;-74
2021/06/27 10:08:35;;;;;;;4.03;3.73;;;;;;;;;;491916;241;27991;-74
2021/06/27 10:10:37;;;;;;;4.20;3.87;;;;;;;;;;491915;241;28789;-74
2021/06/27 10:12:40;;;;;;;3.73;3.40;;;;;;;;;;491919;241;28040;-75
2021/06/27 10:14:48;;;;;;;5.03;3.70;;;;;;;;;;491904;241;28538;-74
2021/06/27 10:16:44;;;;;;;4.03;3.63;;;;;;;;;;491865;240;27903;-74
2021/06/27 10:18:46;;;;;;;3.90;3.50;;;;;;;;;;491911;241;28054;-74
2021/06/27 10:20:48;;;;;;;3.63;3.43;;;;;;;;;;491909;241;27995;-74
2021/06/27 10:22:50;;;;;;;3.90;3.60;;;;;;;;;;491893;241;27956;-73
2021/06/27 10:24:52;;;;;;;3.17;2.97;;;;;;;;;;491918;241;28079;-74
2021/06/27 10:26:54;;;;;;;3.67;3.40;;;;;;;;;;491905;241;27884;-73
2021/06/27 10:28:57;;;;;;;3.43;3.20;;;;;;;;;;491919;241;27922;-74
2021/06/27 10:30:59;;;;;;;3.40;3.20;;;;;;;;;;491899;241;28162;-74
2021/06/27 10:33:01;;;;;;;3.60;3.40;;;;;;;;;;491917;242;28013;-74
2021/06/27 10:35:03;;;;;;;3.50;3.30;;;;;;;;;;491909;240;28129;-74
2021/06/27 10:37:05;;;;;;;3.77;3.50;;;;;;;;;;491945;241;28054;-74
2021/06/27 10:39:07;;;;;;;4.10;3.80;;;;;;;;;;491910;241;28174;-74
2021/06/27 10:41:09;;;;;;;4.43;3.53;;;;;;;;;;491129;241;28431;-74
2021/06/27 10:43:11;;;;;;;3.60;3.30;;;;;;;;;;491891;241;28227;-73
2021/06/27 10:45:13;;;;;;;3.67;3.40;;;;;;;;;;491944;241;28077;-74
2021/06/27 10:47:16;;;;;;;3.53;3.20;;;;;;;;;;491913;241;28162;-74
2021/06/27 10:49:18;;;;;;;4.33;3.93;;;;;;;;;;491927;241;28400;-74
2021/06/27 10:51:22;;;;;;;3.53;3.30;;;;;;;;;;491926;241;28283;-74
2021/06/27 10:53:22;;;;;;;3.40;3.20;;;;;;;;;;491947;240;28303;-74
2021/06/27 10:55:25;;;;;;;3.50;3.30;;;;;;;;;;491936;241;28760;-74
2021/06/27 10:57:26;;;;;;;3.57;3.33;;;;;;;;;;491920;240;28471;-74
2021/06/27 10:59:28;;;;;;;3.37;3.17;;;;;;;;;;491930;241;28783;-74
2021/06/27 11:01:30;;;;;;;3.17;2.97;;;;;;;;;;491919;241;28955;-74
2021/06/27 11:03:34;;;;;;;3.93;3.63;;;;;;;;;;491916;241;28430;-74
2021/06/27 11:05:36;;;;;;;3.70;3.50;;;;;;;;;;491917;240;28795;-74
2021/06/27 11:07:38;;;;;;;4.20;3.90;;;;;;;;;;491940;240;28547;-74
2021/06/27 11:09:39;;;;;;;3.40;3.20;;;;;;;;;;491929;240;28724;-74
2021/06/27 11:11:41;;;;;;;3.50;3.30;;;;;;;;;;491862;241;28791;-74
2021/06/27 11:13:43;;;;;;;3.30;3.10;;;;;;;;;;491610;241;29134;-74
2021/06/27 11:15:45;;;;;;;4.63;4.23;;;;;;;;;;491910;241;28430;-73
2021/06/27 11:17:47;;;;;;;5.00;4.60;;;;;;;;;;491859;241;28793;-74
2021/06/27 11:19:49;;;;;;;3.93;3.63;;;;;;;;;;491908;241;28723;-74
2021/06/27 11:21:51;;;;;;;4.20;3.80;;;;;;;;;;491930;241;28540;-74
2021/06/27 11:23:54;;;;;;;4.50;4.20;;;;;;;;;;491887;241;28408;-74
2021/06/27 11:25:56;;;;;;;3.93;3.63;;;;;;;;;;491883;241;28441;-74
2021/06/27 11:27:58;;;;;;;4.20;3.90;;;;;;;;;;491896;241;28436;-74
2021/06/27 11:30:00;;;;;;;3.93;3.47;;;;;;;;;;491883;241;28462;-74
2021/06/27 11:32:02;;;;;;;4.10;3.70;;;;;;;;;;491897;241;28724;-74
2021/06/27 11:34:04;;;;;;;3.73;3.43;;;;;;;;;;491902;241;28759;-74
2021/06/27 11:36:06;;;;;;;4.13;3.73;;;;;;;;;;491903;241;28756;-74
2021/06/27 11:38:08;;;;;;;4.43;4.10;;;;;;;;;;491925;242;28828;-74
2021/06/27 11:40:10;;;;;;;3.97;3.67;;;;;;;;;;491888;241;28739;-74
2021/06/27 11:42:13;;;;;;;4.00;3.70;;;;;;;;;;491902;241;28852;-74
2021/06/27 11:44:15;;;;;;;4.20;3.90;;;;;;;;;;491896;241;28728;-74
2021/06/27 11:46:17;;;;;;;3.93;3.70;;;;;;;;;;491868;242;28765;-74
2021/06/27 11:48:19;;;;;;;3.90;3.60;;;;;;;;;;491882;241;28732;-74
2021/06/27 11:50:21;;;;;;;5.00;4.00;;;;;;;;;;491877;241;28789;-74
2021/06/27 11:52:23;;;;;;;3.77;3.47;;;;;;;;;;491902;241;28740;-74
2021/06/27 11:54:25;;;;;;;3.53;3.33;;;;;;;;;;491892;241;28834;-74
2021/06/27 11:56:27;;;;;;;3.93;3.63;;;;;;;;;;491881;241;28791;-74
2021/06/27 11:58:30;;;;;;;4.37;3.97;;;;;;;;;;491892;241;28724;-74
2021/06/27 12:00:32;;;;;;;4.13;3.77;;;;;;;;;;491906;241;28833;-74
2021/06/27 12:02:36;;;;;;;4.17;3.87;;;;;;;;;;491906;241;28821;-74
2021/06/27 12:04:36;;;;;;;4.37;4.07;;;;;;;;;;491901;240;28890;-73
2021/06/27 12:06:38;;;;;;;4.03;3.73;;;;;;;;;;491899;241;28723;-73
2021/06/27 12:08:40;;;;;;;3.87;3.57;;;;;;;;;;491907;241;28748;-74
2021/06/27 12:10:42;;;;;;;4.37;3.97;;;;;;;;;;491904;241;28724;-73
2021/06/27 12:12:44;;;;;;;3.97;3.67;;;;;;;;;;491913;241;28787;-74